createdAt,value
2023-02-14T00:01:20.716Z,101784.38
2023-02-14T00:03:49.473Z,101780.50
2023-02-14T00:06:16.946Z,101789.41
2023-02-14T00:08:47.089Z,101793.47
2023-02-14T00:11:14.985Z,101790.75
2023-02-14T00:14:02.315Z,101798.25
2023-02-14T00:16:29.594Z,101800.78
2023-02-14T00:19:06.193Z,101803.88
2023-02-14T00:21:38.668Z,101809.72
2023-02-14T00:24:12.858Z,101811.34
2023-02-14T00:26:40.768Z,101818.28
2023-02-14T00:29:12.245Z,101820.53
2023-02-14T00:31:39.910Z,101821.94
2023-02-14T00:34:08.505Z,101828.22
2023-02-14T00:36:36.543Z,101810.41
2023-02-14T00:39:05.780Z,101818.84
2023-02-14T00:41:33.758Z,101816.88
2023-02-14T00:44:00.965Z,101823.50
2023-02-14T00:46:28.863Z,101819.78
2023-02-14T00:48:56.499Z,101818.38
2023-02-14T00:51:24.036Z,101821.63
2023-02-14T00:53:52.015Z,101822.31
2023-02-14T00:56:20.791Z,101828.47
2023-02-14T00:58:48.609Z,101820.69
2023-02-14T01:01:17.722Z,101821.84
2023-02-14T01:03:44.855Z,101822.03
2023-02-14T01:06:11.983Z,101820.44
2023-02-14T01:08:39.261Z,101811.59
2023-02-14T01:11:18.297Z,101812.16
2023-02-14T01:13:46.819Z,101810.91
2023-02-14T01:16:18.803Z,101812.72
2023-02-14T01:18:46.595Z,101807.50
2023-02-14T01:21:40.203Z,101818.44
2023-02-14T01:24:08.455Z,101812.38
2023-02-14T01:26:36.478Z,101811.16
2023-02-14T01:29:05.380Z,101819.91
2023-02-14T01:31:35.210Z,101820.16
2023-02-14T01:34:03.155Z,101822.91
2023-02-14T01:36:37.751Z,101809.88
2023-02-14T01:39:14.111Z,101822.31
2023-02-14T01:41:43.774Z,101816.41
2023-02-14T01:44:16.962Z,101822.13
2023-02-14T01:46:46.535Z,101816.06
2023-02-14T01:49:22.617Z,101815.94
2023-02-14T01:52:13.607Z,101813.09
2023-02-14T01:54:51.747Z,101821.78
2023-02-14T01:57:21.173Z,101820.75
2023-02-14T01:59:55.344Z,101813.34
2023-02-14T02:02:24.096Z,101815.94
2023-02-14T02:04:56.041Z,101811.41
2023-02-14T02:07:26.578Z,101812.78
2023-02-14T02:10:01.330Z,101811.16
2023-02-14T02:12:30.769Z,101819.06
2023-02-14T02:15:00.260Z,101802.50
2023-02-14T02:17:58.371Z,101813.34
2023-02-14T02:20:43.661Z,101825.00
2023-02-14T02:23:28.457Z,101828.53
2023-02-14T02:26:07.564Z,101825.31
2023-02-14T02:28:49.282Z,101826.13
2023-02-14T02:31:53.941Z,101834.69
2023-02-14T02:35:08.305Z,101832.44
2023-02-14T02:37:57.162Z,101832.53
2023-02-14T02:40:40.432Z,101830.81
2023-02-14T02:43:31.016Z,101842.91
2023-02-14T02:46:37.657Z,101841.09
2023-02-14T02:50:08.861Z,101837.34
2023-02-14T02:53:08.252Z,101845.31
2023-02-14T02:56:09.998Z,101856.84
2023-02-14T02:58:50.612Z,101847.38
2023-02-14T03:01:23.894Z,101855.72
2023-02-14T03:04:18.178Z,101856.41
2023-02-14T03:06:46.393Z,101848.38
2023-02-14T03:09:19.592Z,101851.34
2023-02-14T03:12:25.393Z,101861.16
2023-02-14T03:15:36.640Z,101855.47
2023-02-14T03:18:58.159Z,101853.41
2023-02-14T03:21:55.412Z,101860.81
2023-02-14T03:24:47.473Z,101868.25
2023-02-14T03:27:35.373Z,101868.78
2023-02-14T03:30:14.547Z,101866.66
2023-02-14T03:33:08.687Z,101871.19
2023-02-14T03:36:04.001Z,101870.41
2023-02-14T03:38:56.034Z,101872.63
2023-02-14T03:41:29.812Z,101877.56
2023-02-14T03:44:01.640Z,101867.25
2023-02-14T03:46:46.680Z,101874.97
2023-02-14T03:49:19.968Z,101871.47
2023-02-14T03:51:51.663Z,101859.72
2023-02-14T03:54:21.900Z,101869.72
2023-02-14T03:57:01.821Z,101875.75
2023-02-14T03:59:29.588Z,101871.19
2023-02-14T04:02:39.099Z,101866.50
2023-02-14T04:05:15.931Z,101861.16
2023-02-14T04:07:53.448Z,101876.06
2023-02-14T04:10:22.017Z,101860.91
2023-02-14T04:12:49.977Z,101856.00
2023-02-14T04:15:18.112Z,101855.91
2023-02-14T04:18:03.806Z,101862.75
2023-02-14T04:20:31.030Z,101859.56
2023-02-14T04:22:58.132Z,101854.38
2023-02-14T04:25:25.307Z,101858.97
2023-02-14T04:27:52.467Z,101867.19
2023-02-14T04:30:21.709Z,101867.16
2023-02-14T04:32:50.036Z,101862.97
2023-02-14T04:35:17.312Z,101864.78
2023-02-14T04:37:45.739Z,101873.06
2023-02-14T04:40:16.996Z,101877.97
2023-02-14T04:42:46.044Z,101879.06
2023-02-14T04:45:14.180Z,101871.81
2023-02-14T04:47:41.442Z,101872.28
2023-02-14T04:50:09.084Z,101883.31
2023-02-14T04:52:36.302Z,101883.22
2023-02-14T04:55:04.593Z,101887.41
2023-02-14T04:57:31.836Z,101894.81
2023-02-14T04:59:58.961Z,101894.78
2023-02-14T05:02:26.254Z,101892.78
2023-02-14T05:04:53.351Z,101897.00
2023-02-14T05:07:20.382Z,101898.59
2023-02-14T05:09:47.416Z,101901.78
2023-02-14T05:12:15.686Z,101898.38
2023-02-14T05:14:43.275Z,101908.81
2023-02-14T05:17:10.291Z,101913.63
2023-02-14T05:19:37.412Z,101906.59
2023-02-14T05:22:04.505Z,101912.63
2023-02-14T05:24:31.630Z,101912.97
2023-02-14T05:26:58.725Z,101919.69
2023-02-14T05:29:25.867Z,101914.44
2023-02-14T05:31:53.350Z,101913.78
2023-02-14T05:34:21.816Z,101923.13
2023-02-14T05:36:49.035Z,101929.41
2023-02-14T05:39:16.097Z,101927.91
2023-02-14T05:41:43.128Z,101923.13
2023-02-14T05:44:10.180Z,101926.66
2023-02-14T05:46:37.268Z,101931.31
2023-02-14T05:49:04.981Z,101929.03
2023-02-14T05:51:32.068Z,101915.91
2023-02-14T05:54:00.222Z,101923.88
2023-02-14T05:56:27.640Z,101929.91
2023-02-14T05:58:54.651Z,101935.06
2023-02-14T06:01:21.739Z,101937.59
2023-02-14T06:03:48.797Z,101939.16
2023-02-14T06:06:15.832Z,101944.31
2023-02-14T06:08:42.872Z,101945.19
2023-02-14T06:11:09.874Z,101946.00
2023-02-14T06:13:36.883Z,101950.03
2023-02-14T06:16:04.998Z,101943.50
2023-02-14T06:18:32.100Z,101937.25
2023-02-14T06:20:59.465Z,101943.97
2023-02-14T06:23:26.699Z,101951.59
2023-02-14T06:25:53.762Z,101939.97
2023-02-14T06:28:20.841Z,101944.41
2023-02-14T06:30:48.124Z,101942.16
2023-02-14T06:33:15.226Z,101958.88
2023-02-14T06:35:42.239Z,101953.06
2023-02-14T06:38:09.242Z,101945.56
2023-02-14T06:40:36.304Z,101953.56
2023-02-14T06:43:03.398Z,101956.25
2023-02-14T06:45:30.458Z,101965.28
2023-02-14T06:47:57.455Z,101960.16
2023-02-14T06:50:24.482Z,101958.34
2023-02-14T06:52:51.626Z,101958.00
2023-02-14T06:55:18.976Z,101961.78
2023-02-14T06:57:46.188Z,101956.75
2023-02-14T07:00:14.946Z,101961.78
2023-02-14T07:02:42.403Z,101960.81
2023-02-14T07:05:09.761Z,101963.09
2023-02-14T07:07:36.870Z,101962.44
2023-02-14T07:10:04.413Z,101961.63
2023-02-14T07:12:31.466Z,101957.16
2023-02-14T07:14:58.523Z,101963.56
2023-02-14T07:17:25.582Z,101959.16
2023-02-14T07:19:52.640Z,101968.78
2023-02-14T07:22:19.688Z,101974.19
2023-02-14T07:24:46.696Z,101974.63
2023-02-14T07:27:13.754Z,101977.34
2023-02-14T07:29:40.988Z,101975.50
2023-02-14T07:32:08.199Z,101979.31
2023-02-14T07:34:35.311Z,101988.66
2023-02-14T07:37:02.616Z,101990.38
2023-02-14T07:39:29.822Z,101991.19
2023-02-14T07:41:56.855Z,101979.31
2023-02-14T07:44:23.894Z,101983.88
2023-02-14T07:46:50.973Z,101988.72
2023-02-14T07:49:18.103Z,101994.88
2023-02-14T07:51:45.120Z,101994.50
2023-02-14T07:54:12.126Z,101983.22
2023-02-14T07:56:39.193Z,101984.00
2023-02-14T07:59:06.218Z,101999.09
2023-02-14T08:01:33.259Z,101996.97
2023-02-14T08:04:00.273Z,102007.22
2023-02-14T08:06:28.043Z,102006.97
2023-02-14T08:08:55.087Z,102016.66
2023-02-14T08:11:40.828Z,102021.50
2023-02-14T08:14:08.104Z,102026.97
2023-02-14T08:16:35.312Z,102020.13
2023-02-14T08:19:02.963Z,102037.13
2023-02-14T08:21:30.471Z,102030.75
2023-02-14T08:23:57.782Z,102017.72
2023-02-14T08:26:25.503Z,102031.78
2023-02-14T08:28:52.588Z,102027.78
2023-02-14T08:31:35.219Z,102032.34
2023-02-14T08:34:04.504Z,102040.03
2023-02-14T08:36:31.758Z,102029.50
2023-02-14T08:38:58.962Z,102026.66
2023-02-14T08:41:26.003Z,102037.38
2023-02-14T08:43:53.071Z,102028.72
2023-02-14T08:46:20.133Z,102029.41
2023-02-14T08:48:47.275Z,102039.56
2023-02-14T08:51:15.178Z,102039.34
2023-02-14T08:53:43.271Z,102032.84
2023-02-14T08:56:13.543Z,102034.91
2023-02-14T08:58:41.582Z,102035.81
2023-02-14T09:01:15.479Z,102031.34
2023-02-14T09:03:43.016Z,102044.03
2023-02-14T09:06:17.495Z,102039.59
2023-02-14T09:08:45.639Z,102038.44
2023-02-14T09:11:22.474Z,102045.19
2023-02-14T09:13:53.328Z,102037.31
2023-02-14T09:16:23.372Z,102034.78
2023-02-14T09:18:52.735Z,102037.19
2023-02-14T09:21:24.474Z,102042.22
2023-02-14T09:23:52.550Z,102037.75
2023-02-14T09:26:20.664Z,102038.88
2023-02-14T09:28:48.099Z,102044.13
2023-02-14T09:31:20.372Z,102030.34
2023-02-14T09:34:07.674Z,102036.94
2023-02-14T09:36:53.409Z,102038.44
2023-02-14T09:39:20.472Z,102040.56
2023-02-14T09:41:56.876Z,102030.44
2023-02-14T09:44:47.222Z,102038.41
2023-02-14T09:47:19.867Z,102042.19
2023-02-14T09:49:49.004Z,102047.94
2023-02-14T09:52:21.167Z,102042.06
2023-02-14T09:54:55.242Z,102042.66
2023-02-14T09:58:15.180Z,102045.84
2023-02-14T10:01:00.359Z,102048.47
2023-02-14T10:04:01.639Z,102050.53
2023-02-14T10:06:54.110Z,102057.38
2023-02-14T10:09:50.223Z,102054.53
2023-02-14T10:12:37.901Z,102052.00
2023-02-14T10:15:26.402Z,102053.41
2023-02-14T10:18:10.372Z,102043.44
2023-02-14T10:21:02.021Z,102045.28
2023-02-14T10:23:51.594Z,102043.31
2023-02-14T10:26:41.374Z,102041.06
2023-02-14T10:29:16.212Z,102043.06
2023-02-14T10:32:00.530Z,102039.44
2023-02-14T10:34:50.459Z,102050.09
2023-02-14T10:37:41.477Z,102044.78
2023-02-14T10:40:17.591Z,102046.31
2023-02-14T10:43:02.632Z,102054.25
2023-02-14T10:45:56.821Z,102051.28
2023-02-14T10:48:58.736Z,102046.47
2023-02-14T10:51:47.931Z,102041.03
2023-02-14T10:54:50.595Z,102044.50
2023-02-14T10:57:36.592Z,102046.22
2023-02-14T11:00:12.537Z,102037.78
2023-02-14T11:02:45.764Z,102049.69
2023-02-14T11:05:34.949Z,102045.00
2023-02-14T11:08:02.341Z,102049.09
2023-02-14T11:10:34.231Z,102044.34
2023-02-14T11:13:01.312Z,102037.94
2023-02-14T11:15:39.723Z,102036.03
2023-02-14T11:18:24.463Z,102041.06
2023-02-14T11:21:24.275Z,102039.63
2023-02-14T11:23:51.975Z,102027.50
2023-02-14T11:26:32.822Z,102034.53
2023-02-14T11:29:14.310Z,102030.50
2023-02-14T11:31:42.979Z,102029.63
2023-02-14T11:34:40.513Z,102027.50
2023-02-14T11:37:25.196Z,102029.31
2023-02-14T11:39:55.400Z,102026.13
2023-02-14T11:42:45.513Z,102020.53
2023-02-14T11:45:29.369Z,102018.69
2023-02-14T11:48:10.212Z,102018.06
2023-02-14T11:50:38.842Z,102016.88
2023-02-14T11:53:10.809Z,102013.09
2023-02-14T11:55:38.485Z,102010.53
2023-02-14T11:58:08.108Z,102022.13
2023-02-14T12:00:35.361Z,102025.41
2023-02-14T12:03:06.185Z,102014.59
2023-02-14T12:05:48.732Z,102004.72
2023-02-14T12:08:23.761Z,102008.97
2023-02-14T12:11:23.892Z,102006.47
2023-02-14T12:13:57.344Z,102009.50
2023-02-14T12:16:39.393Z,102017.19
2023-02-14T12:19:24.449Z,102001.69
2023-02-14T12:22:03.364Z,102003.31
2023-02-14T12:24:38.377Z,102006.25
2023-02-14T12:27:39.964Z,102009.59
2023-02-14T12:30:19.826Z,102000.50
2023-02-14T12:32:58.701Z,102005.75
2023-02-14T12:35:54.966Z,102002.31
2023-02-14T12:39:00.585Z,102004.63
2023-02-14T12:41:54.472Z,101997.34
2023-02-14T12:44:36.332Z,102004.13
2023-02-14T12:47:49.758Z,101997.25
2023-02-14T12:50:39.099Z,101987.41
2023-02-14T12:53:29.833Z,101984.59
2023-02-14T12:56:40.625Z,101980.53
2023-02-14T12:59:40.844Z,101988.13
2023-02-14T13:02:41.334Z,101979.03
2023-02-14T13:05:35.855Z,101987.31
2023-02-14T13:08:31.297Z,101984.69
2023-02-14T13:11:26.041Z,101988.53
2023-02-14T13:14:15.159Z,101996.88
2023-02-14T13:17:14.675Z,101993.00
2023-02-14T13:20:33.648Z,101984.28
2023-02-14T13:23:12.567Z,101974.44
2023-02-14T13:26:05.959Z,101990.16
2023-02-14T13:28:33.947Z,101985.41
2023-02-14T13:31:02.043Z,101992.41
2023-02-14T13:33:37.153Z,101992.91
2023-02-14T13:36:11.324Z,101988.06
2023-02-14T13:41:28.310Z,101991.97
2023-02-14T13:44:02.812Z,101992.91
2023-02-14T13:46:33.010Z,102000.28
2023-02-14T13:49:32.742Z,101991.91
2023-02-14T13:52:05.643Z,101994.91
2023-02-14T13:54:48.421Z,101990.78
2023-02-14T13:57:31.721Z,101992.19
2023-02-14T14:00:44.490Z,101990.06
2023-02-14T14:03:31.489Z,101985.53
2023-02-14T14:06:06.081Z,101989.06
2023-02-14T14:08:44.034Z,101991.66
2023-02-14T14:11:21.394Z,101983.69
2023-02-14T14:14:24.195Z,101974.84
2023-02-14T14:17:00.773Z,101966.97
2023-02-14T14:19:27.714Z,101972.75
2023-02-14T14:22:03.168Z,101971.94
2023-02-14T14:24:51.882Z,101981.66
2023-02-14T14:27:25.085Z,101983.97
2023-02-14T14:29:56.815Z,101976.47
2023-02-14T14:32:35.296Z,101979.28
2023-02-14T14:35:12.750Z,101986.28
2023-02-14T14:37:55.212Z,101983.03
2023-02-14T14:40:31.593Z,101981.97
2023-02-14T14:43:29.108Z,101986.75
2023-02-14T14:45:59.967Z,101986.75
2023-02-14T14:48:35.837Z,101976.22
2023-02-14T14:51:06.254Z,101977.03
2023-02-14T14:53:47.012Z,101983.66
2023-02-14T14:56:29.444Z,101984.59
2023-02-14T14:58:57.217Z,101978.53
2023-02-14T15:01:39.459Z,101976.63
2023-02-14T15:04:18.556Z,101982.69
2023-02-14T15:06:47.820Z,101976.00
2023-02-14T15:09:32.476Z,101980.53
2023-02-14T15:12:21.456Z,101985.72
2023-02-14T15:14:54.790Z,101988.50
2023-02-14T15:17:31.710Z,101989.00
2023-02-14T15:20:17.790Z,101985.88
2023-02-14T15:22:48.455Z,101975.22
2023-02-14T15:25:32.909Z,101981.91
2023-02-14T15:28:00.884Z,101983.34
2023-02-14T15:30:34.337Z,101985.88
2023-02-14T15:33:06.398Z,101983.03
2023-02-14T15:35:40.040Z,101979.84
2023-02-14T15:38:10.412Z,101982.22
2023-02-14T15:40:38.944Z,101984.78
2023-02-14T15:43:36.310Z,101989.88
2023-02-14T15:46:26.693Z,101995.00
2023-02-14T15:49:00.882Z,101984.00
2023-02-14T15:51:32.742Z,101983.03
2023-02-14T15:54:02.970Z,101988.69
2023-02-14T15:56:58.801Z,101994.47
2023-02-14T15:59:32.467Z,101994.88
2023-02-14T16:02:20.788Z,102008.06
2023-02-14T16:04:48.056Z,101995.25
2023-02-14T16:07:29.723Z,102003.63
2023-02-14T16:10:28.930Z,102003.63
2023-02-14T16:13:01.995Z,102014.16
2023-02-14T16:15:43.821Z,102012.13
2023-02-14T16:18:36.871Z,102011.44
2023-02-14T16:21:19.689Z,102016.31
2023-02-14T16:24:10.792Z,102014.66
2023-02-14T16:26:43.056Z,102010.00
2023-02-14T16:29:13.740Z,102019.81
2023-02-14T16:32:12.039Z,102021.50
2023-02-14T16:34:35.616Z,102023.00
2023-02-14T16:37:22.309Z,102026.44
2023-02-14T16:39:52.805Z,102029.22
2023-02-14T16:42:20.716Z,102026.44
2023-02-14T16:44:48.239Z,102031.50
2023-02-14T16:47:19.399Z,102034.13
2023-02-14T16:49:46.837Z,102033.28
2023-02-14T16:52:24.063Z,102027.00
2023-02-14T16:54:51.975Z,102036.63
2023-02-14T16:57:28.167Z,102034.53
2023-02-14T16:59:56.889Z,102032.25
2023-02-14T17:02:28.242Z,102038.19
2023-02-14T17:04:55.613Z,102035.31
2023-02-14T17:07:23.310Z,102037.06
2023-02-14T17:09:56.509Z,102041.59
2023-02-14T17:12:32.675Z,102049.22
2023-02-14T17:15:06.149Z,102051.31
2023-02-14T17:17:36.309Z,102057.81
2023-02-14T17:20:06.310Z,102056.06
2023-02-14T17:22:34.493Z,102056.53
2023-02-14T17:25:01.579Z,102051.75
2023-02-14T17:27:28.617Z,102055.06
2023-02-14T17:29:55.717Z,102052.28
2023-02-14T17:32:22.845Z,102054.63
2023-02-14T17:34:49.982Z,102055.13
2023-02-14T17:37:18.996Z,102057.97
2023-02-14T17:39:46.232Z,102057.66
2023-02-14T17:42:13.345Z,102060.38
2023-02-14T17:44:40.459Z,102062.75
2023-02-14T17:47:07.579Z,102058.63
2023-02-14T17:49:34.610Z,102055.38
2023-02-14T17:52:01.625Z,102054.91
2023-02-14T17:54:28.664Z,102049.28
2023-02-14T17:56:55.669Z,102059.63
2023-02-14T17:59:22.780Z,102057.00
2023-02-14T18:01:49.829Z,102059.94
2023-02-14T18:04:16.927Z,102058.91
2023-02-14T18:06:43.970Z,102060.00
2023-02-14T18:09:11.020Z,102058.53
2023-02-14T18:11:40.523Z,102059.34
2023-02-14T18:14:07.868Z,102065.47
2023-02-14T18:16:38.792Z,102056.84
2023-02-14T18:19:08.603Z,102057.06
2023-02-14T18:21:39.942Z,102059.47
2023-02-14T18:24:07.814Z,102050.22
2023-02-14T18:26:38.446Z,102062.34
2023-02-14T18:29:07.464Z,102063.09
2023-02-14T18:31:37.652Z,102065.59
2023-02-14T18:34:05.196Z,102068.22
2023-02-14T18:36:34.680Z,102064.25
2023-02-14T18:39:01.817Z,102067.44
2023-02-14T18:41:29.808Z,102064.25
2023-02-14T18:43:57.129Z,102063.97
2023-02-14T18:46:31.551Z,102059.09
2023-02-14T18:48:58.961Z,102060.72
2023-02-14T18:51:32.222Z,102066.59
2023-02-14T18:54:01.553Z,102065.00
2023-02-14T18:56:33.051Z,102067.38
2023-02-14T18:59:07.090Z,102066.97
2023-02-14T19:01:38.201Z,102061.91
2023-02-14T19:04:08.783Z,102068.72
2023-02-14T19:06:36.860Z,102059.69
2023-02-14T19:09:10.597Z,102066.00
2023-02-14T19:11:38.215Z,102067.19
2023-02-14T19:14:10.120Z,102070.09
2023-02-14T19:16:53.670Z,102065.94
2023-02-14T19:19:22.977Z,102069.66
2023-02-14T19:21:50.980Z,102071.97
2023-02-14T19:24:19.813Z,102067.13
2023-02-14T19:26:47.471Z,102067.25
2023-02-14T19:29:18.181Z,102056.66
2023-02-14T19:31:51.804Z,102074.97
2023-02-14T19:34:30.972Z,102073.13
2023-02-14T19:37:01.290Z,102079.53
2023-02-14T19:39:30.099Z,102074.97
2023-02-14T19:41:58.022Z,102082.69
2023-02-14T19:44:26.122Z,102074.59
2023-02-14T19:46:56.727Z,102070.78
2023-02-14T19:49:26.919Z,102072.88
2023-02-14T19:51:54.732Z,102070.41
2023-02-14T19:54:22.911Z,102074.09
2023-02-14T19:56:49.932Z,102066.31
2023-02-14T19:59:20.464Z,102074.34
2023-02-14T20:01:56.947Z,102070.16
2023-02-14T20:04:28.575Z,102076.38
2023-02-14T20:06:56.955Z,102073.06
2023-02-14T20:09:25.696Z,102071.13
2023-02-14T20:11:55.668Z,102056.59
2023-02-14T20:14:29.875Z,102061.41
2023-02-14T20:16:59.742Z,102069.81
2023-02-14T20:19:32.746Z,102067.88
2023-02-14T20:22:00.435Z,102062.25
2023-02-14T20:24:31.406Z,102067.75
2023-02-14T20:27:00.420Z,102067.75
2023-02-14T20:29:28.127Z,102067.75
2023-02-14T20:32:00.230Z,102061.06
2023-02-14T20:34:27.742Z,102056.25
2023-02-14T20:36:56.030Z,102068.03
2023-02-14T20:39:32.418Z,102069.22
2023-02-14T20:42:00.854Z,102063.81
2023-02-14T20:44:28.583Z,102062.41
2023-02-14T20:46:57.392Z,102057.81
2023-02-14T20:49:27.274Z,102065.81
2023-02-14T20:51:54.535Z,102055.63
2023-02-14T20:54:24.183Z,102063.88
2023-02-14T20:56:51.719Z,102061.34
2023-02-14T20:59:24.380Z,102067.38
2023-02-14T21:01:51.566Z,102057.97
2023-02-14T21:04:18.591Z,102061.63
2023-02-14T21:06:45.724Z,102059.53
2023-02-14T21:09:12.716Z,102066.59
2023-02-14T21:11:41.320Z,102067.50
2023-02-14T21:14:08.412Z,102065.81
2023-02-14T21:16:35.455Z,102071.44
2023-02-14T21:19:02.556Z,102069.22
2023-02-14T21:21:36.494Z,102068.84
2023-02-14T21:24:14.540Z,102062.56
2023-02-14T21:26:42.097Z,102066.88
2023-02-14T21:29:10.089Z,102065.31
2023-02-14T21:31:38.699Z,102072.50
2023-02-14T21:34:06.358Z,102073.78
2023-02-14T21:36:36.027Z,102076.28
2023-02-14T21:39:04.949Z,102064.53
2023-02-14T21:41:32.443Z,102060.31
2023-02-14T21:44:01.161Z,102069.50
2023-02-14T21:46:32.670Z,102072.09
2023-02-14T21:49:24.522Z,102067.78
2023-02-14T21:51:51.659Z,102075.13
2023-02-14T21:54:18.986Z,102063.72
2023-02-14T21:56:46.058Z,102061.38
2023-02-14T21:59:14.091Z,102066.47
2023-02-14T22:01:42.516Z,102062.94
2023-02-14T22:04:12.295Z,102064.25
2023-02-14T22:06:41.730Z,102061.47
2023-02-14T22:09:09.940Z,102063.03
2023-02-14T22:11:37.213Z,102058.47
2023-02-14T22:14:04.469Z,102059.13
2023-02-14T22:16:31.943Z,102059.78
2023-02-14T22:18:58.998Z,102060.41
2023-02-14T22:21:27.209Z,102058.63
2023-02-14T22:23:55.402Z,102049.84
2023-02-14T22:26:30.669Z,102055.19
2023-02-14T22:29:00.821Z,102050.47
2023-02-14T22:31:32.771Z,102054.94
2023-02-14T22:33:59.931Z,102052.56
2023-02-14T22:36:27.080Z,102055.94
2023-02-14T22:38:54.324Z,102062.13
2023-02-14T22:41:24.529Z,102051.66
2023-02-14T22:43:53.230Z,102038.06
2023-02-14T22:46:27.473Z,102047.72
2023-02-14T22:48:55.971Z,102056.63
2023-02-14T22:51:40.691Z,102060.56
2023-02-14T22:54:14.968Z,102053.44
2023-02-14T22:56:45.999Z,102055.53
2023-02-14T22:59:19.188Z,102053.19
2023-02-14T23:01:47.663Z,102056.19
2023-02-14T23:04:17.183Z,102051.63
2023-02-14T23:06:44.693Z,102051.47
2023-02-14T23:09:13.135Z,102046.22
2023-02-14T23:11:43.135Z,102045.56
2023-02-14T23:14:34.042Z,102052.50
2023-02-14T23:17:20.502Z,102047.47
2023-02-14T23:20:07.071Z,102054.94
2023-02-14T23:22:37.857Z,102049.44
2023-02-14T23:25:09.165Z,102056.59
2023-02-14T23:27:41.416Z,102051.47
2023-02-14T23:30:13.347Z,102059.88
2023-02-14T23:32:41.045Z,102045.34
2023-02-14T23:35:08.606Z,102051.63
2023-02-14T23:37:35.899Z,102049.66
2023-02-14T23:40:04.107Z,102045.88
2023-02-14T23:42:31.254Z,102046.91
2023-02-14T23:45:18.459Z,102053.31
2023-02-14T23:47:45.535Z,102056.56
2023-02-14T23:50:12.613Z,102057.34
2023-02-14T23:52:41.771Z,102050.03
2023-02-14T23:55:09.784Z,102046.78
2023-02-14T23:57:37.362Z,102053.03
